Time;durP1;ratioP1;P1;durP2;ratioP2;P2;SDS_P1;SDS_P2;PMS_P1;PMS_P2;Temp;Humidity;BMP_temperature;BMP_pressure;BME280_temperature;BME280_humidity;BME280_pressure;Samples;Min_cycle;Max_cycle;Signal;HPM_P1;HPM_P2
2022/11/07 00:02:15;;;;;;;;;;;12.50;99.90;;;;;;5114373;28;20313;-76
2022/11/07 00:04:40;;;;;;;;;;;12.50;99.90;;;;;;5114472;28;19912;-80
2022/11/07 00:07:06;;;;;;;;;;;12.50;99.90;;;;;;5114501;28;19908;-79
2022/11/07 00:09:32;;;;;;;;;;;12.60;99.90;;;;;;5114344;28;19911;-77
2022/11/07 00:11:58;;;;;;;;;;;12.60;99.90;;;;;;5114363;28;19908;-78
2022/11/07 00:14:23;;;;;;;;;;;12.60;99.90;;;;;;5113608;28;19930;-77
2022/11/07 00:16:49;;;;;;;;;;;12.60;99.90;;;;;;5114631;28;19915;-78
2022/11/07 00:19:15;;;;;;;;;;;12.60;99.90;;;;;;5114274;28;19953;-77
2022/11/07 00:21:41;;;;;;;;;;;12.60;99.90;;;;;;5114223;28;20055;-78
2022/11/07 00:24:07;;;;;;;;;;;12.70;99.90;;;;;;5114227;28;19917;-77
2022/11/07 00:26:32;;;;;;;;;;;12.70;99.90;;;;;;5114148;28;20363;-77
2022/11/07 00:28:58;;;;;;;;;;;12.70;99.90;;;;;;5114392;28;20443;-76
2022/11/07 00:31:23;;;;;;;;;;;12.70;99.90;;;;;;5114161;28;19962;-79
2022/11/07 00:33:49;;;;;;;;;;;12.70;99.90;;;;;;5114120;28;19946;-78
2022/11/07 00:36:19;;;;;;;;;;;12.70;99.90;;;;;;5114087;28;19959;-77
2022/11/07 00:38:45;;;;;;;;;;;12.70;99.90;;;;;;5114371;28;19999;-77
2022/11/07 00:41:11;;;;;;;;;;;12.70;99.90;;;;;;5095543;28;19908;-78
2022/11/07 00:43:37;;;;;;;;;;;12.70;99.90;;;;;;5114027;28;19956;-77
2022/11/07 00:46:03;;;;;;;;;;;12.70;99.90;;;;;;5113987;28;19908;-77
2022/11/07 00:48:29;;;;;;;;;;;12.70;99.90;;;;;;5114252;28;19919;-77
2022/11/07 00:50:54;;;;;;;;;;;12.70;99.90;;;;;;5114238;28;20321;-77
2022/11/07 00:53:20;;;;;;;;;;;12.70;99.90;;;;;;5114019;28;19939;-77
2022/11/07 00:55:46;;;;;;;;;;;12.70;99.90;;;;;;5114204;28;19912;-77
2022/11/07 00:58:12;;;;;;;;;;;12.70;99.90;;;;;;5113910;28;19951;-77
2022/11/07 01:00:37;;;;;;;;;;;12.60;99.90;;;;;;5113895;28;19994;-77
2022/11/07 01:05:56;;;;;;;;;;;12.60;99.90;;;;;;5113900;28;20295;-78
2022/11/07 01:08:21;;;;;;;;;;;12.70;99.90;;;;;;5114360;28;19908;-77
2022/11/07 01:10:47;;;;;;;;;;;12.70;99.90;;;;;;5114015;28;19965;-77
2022/11/07 01:13:12;;;;;;;;;;;12.70;99.90;;;;;;5114069;28;20390;-76
2022/11/07 01:15:41;;;;;;;;;;;12.70;99.90;;;;;;5113741;28;19911;-79
2022/11/07 01:18:07;;;;;;;;;;;12.70;99.90;;;;;;5113746;28;19950;-78
2022/11/07 01:20:32;;;;;;;;;;;12.80;99.90;;;;;;5113684;28;19915;-77
2022/11/07 01:22:58;;;;;;;;;;;12.80;99.90;;;;;;5113878;28;20018;-78
2022/11/07 01:25:23;;;;;;;;;;;12.80;99.90;;;;;;5115156;28;19908;-79
2022/11/07 01:27:49;;;;;;;;;;;12.80;99.90;;;;;;5117509;28;19919;-78
2022/11/07 01:30:14;;;;;;;;;;;12.80;99.90;;;;;;5117426;28;19912;-78
2022/11/07 01:32:40;;;;;;;;;;;12.80;99.90;;;;;;5117981;28;20352;-76
2022/11/07 01:35:05;;;;;;;;;;;12.80;99.90;;;;;;5117349;28;19915;-77
2022/11/07 01:37:31;;;;;;;;;;;12.80;99.90;;;;;;5117830;28;19908;-78
2022/11/07 01:39:56;;;;;;;;;;;12.80;99.90;;;;;;5117507;28;19908;-78
2022/11/07 01:42:22;;;;;;;;;;;12.80;99.90;;;;;;5117202;28;19939;-77
2022/11/07 01:44:49;;;;;;;;;;;12.80;99.90;;;;;;5117159;28;19998;-76
2022/11/07 01:47:15;;;;;;;;;;;12.80;99.90;;;;;;5117502;28;20259;-79
2022/11/07 01:49:41;;;;;;;;;;;12.80;99.90;;;;;;5117304;28;20002;-78
2022/11/07 01:52:06;;;;;;;;;;;12.80;99.90;;;;;;5117024;28;20283;-77
2022/11/07 01:54:34;;;;;;;;;;;12.80;99.90;;;;;;5117268;28;19961;-78
2022/11/07 01:57:02;;;;;;;;;;;12.80;99.90;;;;;;5117197;28;19960;-78
2022/11/07 01:59:29;;;;;;;;;;;12.90;99.90;;;;;;5117034;28;19912;-76
2022/11/07 02:01:55;;;;;;;;;;;12.80;99.90;;;;;;5116884;28;20026;-78
2022/11/07 02:04:23;;;;;;;;;;;12.90;99.90;;;;;;5116461;28;19980;-77
2022/11/07 02:06:53;;;;;;;;;;;12.90;99.90;;;;;;5098431;28;19911;-79
2022/11/07 02:09:18;;;;;;;;;;;12.90;99.90;;;;;;5116639;28;19923;-79
2022/11/07 02:11:44;;;;;;;;;;;12.90;99.90;;;;;;5116646;28;19908;-78
2022/11/07 02:14:17;;;;;;;;;;;12.90;99.90;;;;;;5116840;28;19907;-78
2022/11/07 02:16:43;;;;;;;;;;;12.90;99.90;;;;;;5116528;28;20007;-78
2022/11/07 02:19:11;;;;;;;;;;;12.90;99.90;;;;;;5116537;28;20379;-78
2022/11/07 02:22:00;;;;;;;;;;;12.90;99.90;;;;;;5116993;28;19915;-76
2022/11/07 02:24:28;;;;;;;;;;;12.90;99.90;;;;;;5068959;28;19908;-77
2022/11/07 02:26:55;;;;;;;;;;;12.90;99.90;;;;;;5116332;28;19908;-78
2022/11/07 02:29:21;;;;;;;;;;;12.90;99.90;;;;;;5116530;28;19953;-79
2022/11/07 02:31:47;;;;;;;;;;;12.90;99.90;;;;;;5116267;28;20295;-76
2022/11/07 02:34:12;;;;;;;;;;;12.90;99.90;;;;;;5116224;28;19961;-77
2022/11/07 02:36:38;;;;;;;;;;;12.90;99.90;;;;;;5115396;28;19912;-77
2022/11/07 02:39:03;;;;;;;;;;;12.90;99.90;;;;;;5116689;28;19908;-77
2022/11/07 02:41:31;;;;;;;;;;;12.90;99.90;;;;;;5116061;28;19957;-76
2022/11/07 02:43:58;;;;;;;;;;;12.90;99.90;;;;;;5116335;28;20272;-78
2022/11/07 02:46:24;;;;;;;;;;;12.90;99.90;;;;;;5116024;28;19915;-76
2022/11/07 02:48:51;;;;;;;;;;;12.90;99.90;;;;;;5115880;28;19908;-77
2022/11/07 02:51:16;;;;;;;;;;;12.90;99.90;;;;;;5116422;28;19914;-78
2022/11/07 02:53:42;;;;;;;;;;;12.80;99.90;;;;;;5115835;28;19995;-78
2022/11/07 02:56:08;;;;;;;;;;;12.90;99.90;;;;;;5116082;28;20283;-78
2022/11/07 02:58:33;;;;;;;;;;;12.90;99.90;;;;;;5115999;28;19908;-77
2022/11/07 03:01:05;;;;;;;;;;;12.80;99.90;;;;;;5115662;28;20275;-78
2022/11/07 03:03:41;;;;;;;;;;;12.80;99.90;;;;;;5115721;28;19920;-76
2022/11/07 03:06:08;;;;;;;;;;;12.80;99.90;;;;;;5097010;28;20362;-76
2022/11/07 03:08:34;;;;;;;;;;;12.80;99.90;;;;;;5115739;28;19914;-77
2022/11/07 03:10:59;;;;;;;;;;;12.80;99.90;;;;;;5115482;28;19908;-79
2022/11/07 03:13:25;;;;;;;;;;;12.80;99.90;;;;;;5115470;28;20026;-77
2022/11/07 03:15:50;;;;;;;;;;;12.80;99.90;;;;;;5115449;28;20382;-77
2022/11/07 03:18:16;;;;;;;;;;;12.80;99.90;;;;;;5115606;28;19908;-78
2022/11/07 03:20:42;;;;;;;;;;;12.80;99.90;;;;;;5115567;28;20380;-77
2022/11/07 03:23:07;;;;;;;;;;;12.80;99.90;;;;;;5115753;28;19923;-76
2022/11/07 03:25:33;;;;;;;;;;;12.80;99.90;;;;;;5115211;28;20435;-76
2022/11/07 03:27:59;;;;;;;;;;;12.80;99.90;;;;;;5115186;28;19912;-75
2022/11/07 03:30:24;;;;;;;;;;;12.80;99.90;;;;;;5115378;28;19912;-78
2022/11/07 03:32:50;;;;;;;;;;;12.80;99.90;;;;;;5115067;28;19908;-75
2022/11/07 03:35:16;;;;;;;;;;;12.80;99.90;;;;;;5114977;28;20364;-76
2022/11/07 03:37:44;;;;;;;;;;;12.80;99.90;;;;;;5114977;28;19908;-77
2022/11/07 03:40:09;;;;;;;;;;;12.80;99.90;;;;;;5115221;28;19912;-78
2022/11/07 03:42:38;;;;;;;;;;;12.90;99.90;;;;;;5096575;28;20394;-78
2022/11/07 03:45:04;;;;;;;;;;;12.90;99.90;;;;;;5114892;28;20397;-77
2022/11/07 03:47:33;;;;;;;;;;;12.90;99.90;;;;;;5114925;28;19912;-78
2022/11/07 03:49:58;;;;;;;;;;;12.90;99.90;;;;;;5116566;28;19970;-77
2022/11/07 03:52:24;;;;;;;;;;;12.90;99.90;;;;;;5097639;28;20376;-78
2022/11/07 03:54:49;;;;;;;;;;;12.90;99.90;;;;;;5115329;28;19908;-79
2022/11/07 03:57:15;;;;;;;;;;;13.00;99.90;;;;;;5114626;28;20352;-79
2022/11/07 03:59:40;;;;;;;;;;;13.00;99.90;;;;;;5114593;28;19908;-78
2022/11/07 04:02:06;;;;;;;;;;;13.00;99.90;;;;;;5114818;28;19908;-77
2022/11/07 04:04:31;;;;;;;;;;;13.00;99.90;;;;;;5114118;28;19919;-79
2022/11/07 04:06:57;;;;;;;;;;;13.00;99.90;;;;;;5114484;28;19908;-78
2022/11/07 04:09:22;;;;;;;;;;;13.00;99.90;;;;;;5114395;28;19918;-75
2022/11/07 04:17:18;;;;;;;;;;;13.00;99.90;;;;;;5114408;28;20037;-79
2022/11/07 04:19:53;;;;;;;;;;;13.00;99.90;;;;;;5114915;28;19911;-78
2022/11/07 04:22:19;;;;;;;;;;;13.00;99.90;;;;;;5114556;28;19943;-78
2022/11/07 04:24:44;;;;;;;;;;;13.00;99.90;;;;;;5114543;28;19968;-78
2022/11/07 04:29:54;;;;;;;;;;;13.10;99.90;;;;;;5114190;28;19934;-78
2022/11/07 04:32:21;;;;;;;;;;;13.10;99.90;;;;;;5114081;28;20375;-78
2022/11/07 04:34:47;;;;;;;;;;;13.10;99.90;;;;;;5114162;28;19912;-76
2022/11/07 04:37:12;;;;;;;;;;;13.10;99.90;;;;;;5114075;28;19914;-78
2022/11/07 04:39:38;;;;;;;;;;;13.00;99.90;;;;;;5114381;28;19908;-79
2022/11/07 04:42:03;;;;;;;;;;;13.00;99.90;;;;;;5114065;28;19908;-79
2022/11/07 04:44:29;;;;;;;;;;;13.00;99.90;;;;;;5114621;28;19919;-78
2022/11/07 04:46:54;;;;;;;;;;;13.00;99.90;;;;;;5114050;28;19908;-78
2022/11/07 04:49:20;;;;;;;;;;;13.00;99.90;;;;;;5114205;28;20260;-79
2022/11/07 04:51:45;;;;;;;;;;;13.00;99.90;;;;;;5113999;28;19915;-79
2022/11/07 04:54:12;;;;;;;;;;;12.90;99.90;;;;;;5113940;28;19908;-78
2022/11/07 04:56:38;;;;;;;;;;;12.90;99.90;;;;;;5114503;28;20015;-78
2022/11/07 04:59:03;;;;;;;;;;;12.90;99.90;;;;;;5113896;28;20368;-78
2022/11/07 05:01:29;;;;;;;;;;;12.90;99.90;;;;;;5117660;28;20382;-77
2022/11/07 05:03:54;;;;;;;;;;;12.90;99.90;;;;;;5117851;28;19926;-79
2022/11/07 05:06:20;;;;;;;;;;;12.90;99.90;;;;;;5118221;28;19955;-78
2022/11/07 05:08:46;;;;;;;;;;;12.90;99.90;;;;;;5117791;28;19912;-78
2022/11/07 05:11:11;;;;;;;;;;;12.90;99.90;;;;;;5117840;28;19908;-79
2022/11/07 05:13:37;;;;;;;;;;;13.00;99.90;;;;;;5118380;28;19943;-78
2022/11/07 05:16:02;;;;;;;;;;;13.00;99.90;;;;;;5117683;28;19915;-76
2022/11/07 05:18:28;;;;;;;;;;;12.90;99.90;;;;;;5118234;28;19908;-78
2022/11/07 05:20:54;;;;;;;;;;;12.90;99.90;;;;;;5117917;28;19915;-78
2022/11/07 05:23:20;;;;;;;;;;;12.90;99.90;;;;;;5117510;28;19994;-77
2022/11/07 05:25:55;;;;;;;;;;;12.90;99.90;;;;;;5118153;28;19984;-78
2022/11/07 05:28:22;;;;;;;;;;;13.00;99.90;;;;;;5117555;28;20400;-79
2022/11/07 05:30:48;;;;;;;;;;;13.00;99.90;;;;;;5117627;28;19918;-77
2022/11/07 05:33:15;;;;;;;;;;;13.00;99.90;;;;;;5117723;28;20271;-78
2022/11/07 05:35:41;;;;;;;;;;;13.00;99.90;;;;;;5117627;28;19914;-78
2022/11/07 05:38:08;;;;;;;;;;;13.00;99.90;;;;;;5117313;28;19908;-78
2022/11/07 05:40:35;;;;;;;;;;;13.10;99.90;;;;;;5117612;28;19908;-77
2022/11/07 05:43:01;;;;;;;;;;;13.10;99.90;;;;;;5117236;28;19907;-79
2022/11/07 05:45:27;;;;;;;;;;;13.10;99.90;;;;;;5117450;28;19908;-78
2022/11/07 05:47:56;;;;;;;;;;;13.10;99.90;;;;;;5117182;28;20391;-78
2022/11/07 05:50:22;;;;;;;;;;;13.10;99.90;;;;;;5117599;28;19912;-77
2022/11/07 05:52:47;;;;;;;;;;;13.10;99.90;;;;;;5117368;28;20314;-77
2022/11/07 05:55:13;;;;;;;;;;;13.10;99.90;;;;;;5117053;28;19908;-79
2022/11/07 05:57:38;;;;;;;;;;;13.10;99.90;;;;;;5117005;28;19912;-79
2022/11/07 06:00:04;;;;;;;;;;;13.10;99.90;;;;;;5117230;28;19907;-78
2022/11/07 06:02:29;;;;;;;;;;;13.10;99.90;;;;;;5116883;28;19907;-78
2022/11/07 06:04:56;;;;;;;;;;;13.10;99.90;;;;;;5117155;28;19964;-78
2022/11/07 06:07:21;;;;;;;;;;;13.10;99.90;;;;;;5098421;28;19908;-78
2022/11/07 06:09:47;;;;;;;;;;;13.10;99.90;;;;;;5116640;28;19918;-78
2022/11/07 06:12:12;;;;;;;;;;;13.10;99.90;;;;;;5115802;28;19907;-76
2022/11/07 06:14:38;;;;;;;;;;;13.10;99.90;;;;;;5116632;28;19907;-78
2022/11/07 06:17:03;;;;;;;;;;;13.10;99.90;;;;;;5117135;28;19908;-79
2022/11/07 06:19:29;;;;;;;;;;;13.10;99.90;;;;;;5116551;28;20359;-78
2022/11/07 06:21:54;;;;;;;;;;;13.10;99.90;;;;;;5116463;28;19960;-77
2022/11/07 06:24:20;;;;;;;;;;;13.10;99.90;;;;;;5116906;28;19908;-78
2022/11/07 06:26:45;;;;;;;;;;;13.00;99.90;;;;;;5116425;28;19907;-77
2022/11/07 06:29:11;;;;;;;;;;;13.00;99.90;;;;;;5116262;28;20287;-77
2022/11/07 06:31:36;;;;;;;;;;;13.10;99.90;;;;;;5116293;28;20364;-78
2022/11/07 06:34:02;;;;;;;;;;;13.00;99.90;;;;;;5116249;28;19915;-78
2022/11/07 06:36:27;;;;;;;;;;;13.10;99.90;;;;;;5116233;28;19907;-77
2022/11/07 06:38:53;;;;;;;;;;;13.10;99.90;;;;;;5116394;28;19908;-79
2022/11/07 06:41:18;;;;;;;;;;;13.00;99.90;;;;;;5116124;28;19911;-78
2022/11/07 06:43:44;;;;;;;;;;;13.10;99.90;;;;;;5116616;28;19907;-76
2022/11/07 06:46:12;;;;;;;;;;;13.10;99.90;;;;;;5115963;28;19961;-77
2022/11/07 06:48:39;;;;;;;;;;;13.00;99.90;;;;;;5116238;28;19973;-78
2022/11/07 06:51:05;;;;;;;;;;;13.10;99.90;;;;;;5116210;28;19918;-79
2022/11/07 06:53:31;;;;;;;;;;;13.10;99.90;;;;;;5115865;28;19916;-77
2022/11/07 06:55:58;;;;;;;;;;;13.10;99.90;;;;;;5115830;28;19954;-79
2022/11/07 06:58:23;;;;;;;;;;;13.10;99.90;;;;;;5115599;28;20364;-77
2022/11/07 07:00:49;;;;;;;;;;;13.10;99.90;;;;;;5115736;28;19998;-79
2022/11/07 07:03:14;;;;;;;;;;;13.10;99.90;;;;;;5115392;28;19920;-77
2022/11/07 07:05:40;;;;;;;;;;;13.00;99.90;;;;;;5116184;28;19907;-78
2022/11/07 07:08:06;;;;;;;;;;;13.10;99.90;;;;;;5115592;28;19908;-76
2022/11/07 07:10:40;;;;;;;;;;;13.10;99.90;;;;;;5115427;28;19912;-79
2022/11/07 07:13:06;;;;;;;;;;;13.00;99.90;;;;;;5116088;28;19915;-76
2022/11/07 07:15:31;;;;;;;;;;;13.10;99.90;;;;;;5115434;28;19908;-76
2022/11/07 07:17:58;;;;;;;;;;;13.10;99.90;;;;;;5115646;28;19914;-77
2022/11/07 07:20:23;;;;;;;;;;;13.10;99.90;;;;;;5115324;28;19915;-75
2022/11/07 07:22:49;;;;;;;;;;;13.10;99.90;;;;;;5115233;28;19912;-77
2022/11/07 07:25:15;;;;;;;;;;;13.10;99.90;;;;;;5115271;28;19914;-77
2022/11/07 07:27:40;;;;;;;;;;;13.00;99.90;;;;;;5115481;28;19912;-77
2022/11/07 07:30:06;;;;;;;;;;;13.10;99.90;;;;;;5115073;28;20373;-77
2022/11/07 07:32:34;;;;;;;;;;;13.00;99.90;;;;;;5115097;28;19911;-76
2022/11/07 07:34:59;;;;;;;;;;;13.10;99.90;;;;;;5115334;28;19911;-78
2022/11/07 07:37:25;;;;;;;;;;;13.10;99.90;;;;;;5115269;28;19915;-78
2022/11/07 07:39:51;;;;;;;;;;;13.10;99.90;;;;;;5114968;28;20352;-78
2022/11/07 07:42:16;;;;;;;;;;;13.10;99.90;;;;;;5114931;28;19914;-76
2022/11/07 07:44:42;;;;;;;;;;;13.20;99.90;;;;;;5114950;28;19908;-77
2022/11/07 07:47:07;;;;;;;;;;;13.20;99.90;;;;;;5114846;28;19957;-77
2022/11/07 07:49:33;;;;;;;;;;;13.20;99.90;;;;;;5112516;28;20423;-78
2022/11/07 07:51:58;;;;;;;;;;;13.20;99.90;;;;;;5102151;28;19923;-78
2022/11/07 07:54:24;;;;;;;;;;;13.20;99.90;;;;;;5102718;28;19918;-79
2022/11/07 07:56:49;;;;;;;;;;;13.20;99.90;;;;;;5094416;28;19908;-76
2022/11/07 07:59:15;;;;;;;;;;;13.20;99.90;;;;;;5113349;28;20363;-80
2022/11/07 08:01:41;;;;;;;;;;;13.20;99.90;;;;;;5099126;28;19912;-76
2022/11/07 08:04:06;;;;;;;;;;;13.30;99.90;;;;;;5093789;28;19955;-77
2022/11/07 08:06:33;;;;;;;;;;;13.30;99.90;;;;;;5094771;28;19908;-79
2022/11/07 08:08:59;;;;;;;;;;;13.30;99.90;;;;;;5106420;28;20336;-74
2022/11/07 08:11:24;;;;;;;;;;;13.40;99.90;;;;;;5115057;28;19999;-76
2022/11/07 08:13:50;;;;;;;;;;;13.40;99.90;;;;;;5114737;28;20036;-77
2022/11/07 08:16:15;;;;;;;;;;;13.40;99.90;;;;;;5114481;28;20052;-75
2022/11/07 08:18:41;;;;;;;;;;;13.40;99.90;;;;;;5113775;28;20040;-75
2022/11/07 08:21:07;;;;;;;;;;;13.50;99.90;;;;;;5114488;28;19908;-77
2022/11/07 08:23:33;;;;;;;;;;;13.50;99.90;;;;;;5112598;28;20016;-76
2022/11/07 08:25:59;;;;;;;;;;;13.60;99.90;;;;;;5100053;28;20395;-76
2022/11/07 08:28:25;;;;;;;;;;;13.60;99.90;;;;;;5094400;28;19947;-75
2022/11/07 08:30:55;;;;;;;;;;;13.60;99.90;;;;;;5094715;28;19916;-76
2022/11/07 08:33:20;;;;;;;;;;;13.70;99.90;;;;;;5103312;28;20299;-78
2022/11/07 08:35:46;;;;;;;;;;;13.80;99.90;;;;;;5114048;28;20006;-76
2022/11/07 08:38:11;;;;;;;;;;;13.90;99.90;;;;;;5114124;28;20007;-76
2022/11/07 08:40:37;;;;;;;;;;;14.00;99.90;;;;;;5114195;28;19914;-75
2022/11/07 08:43:02;;;;;;;;;;;14.00;99.90;;;;;;5114193;28;19961;-75
2022/11/07 08:45:28;;;;;;;;;;;14.10;99.90;;;;;;5104508;28;19912;-74
2022/11/07 08:47:57;;;;;;;;;;;14.20;99.90;;;;;;5094022;28;19951;-76
2022/11/07 08:50:23;;;;;;;;;;;14.20;99.90;;;;;;5109134;28;20309;-75
2022/11/07 08:52:49;;;;;;;;;;;14.30;99.90;;;;;;5098005;28;20081;-75
2022/11/07 08:55:14;;;;;;;;;;;14.30;99.90;;;;;;5093987;28;19908;-76
2022/11/07 08:57:40;;;;;;;;;;;14.40;99.90;;;;;;5093721;28;20269;-77
2022/11/07 09:00:06;;;;;;;;;;;14.40;99.90;;;;;;5094181;28;20410;-75
2022/11/07 09:02:31;;;;;;;;;;;14.40;99.90;;;;;;5093675;28;19915;-77
2022/11/07 09:04:57;;;;;;;;;;;14.50;99.90;;;;;;5094525;28;19912;-76
2022/11/07 09:07:22;;;;;;;;;;;14.50;99.90;;;;;;5106064;28;19916;-75
2022/11/07 09:09:48;;;;;;;;;;;14.50;99.90;;;;;;5095195;28;20292;-76
2022/11/07 09:12:13;;;;;;;;;;;14.50;99.90;;;;;;5093465;28;19912;-78
2022/11/07 09:14:38;;;;;;;;;;;14.60;99.90;;;;;;5093722;28;19918;-76
2022/11/07 09:17:04;;;;;;;;;;;14.60;99.90;;;;;;5093714;28;19908;-77
2022/11/07 09:19:29;;;;;;;;;;;14.70;99.90;;;;;;5093482;28;20288;-76
2022/11/07 09:21:56;;;;;;;;;;;14.70;99.90;;;;;;5105178;28;19919;-76
2022/11/07 09:24:21;;;;;;;;;;;14.80;99.90;;;;;;5113677;28;19946;-77
2022/11/07 09:26:47;;;;;;;;;;;14.90;99.90;;;;;;5113713;28;19908;-79
2022/11/07 09:29:12;;;;;;;;;;;14.90;99.90;;;;;;5112360;28;19916;-76
2022/11/07 09:31:38;;;;;;;;;;;15.20;99.90;;;;;;5113698;28;19943;-77
2022/11/07 09:34:03;;;;;;;;;;;15.40;99.90;;;;;;5113952;28;19907;-75
2022/11/07 09:36:29;;;;;;;;;;;15.80;99.90;;;;;;5113677;28;20393;-75
2022/11/07 09:38:56;;;;;;;;;;;16.20;99.90;;;;;;5113878;28;20387;-78
2022/11/07 09:41:35;;;;;;;;;;;16.50;99.90;;;;;;5113592;28;20430;-80
2022/11/07 09:44:00;;;;;;;;;;;16.90;99.90;;;;;;5112594;28;19911;-78
2022/11/07 09:46:32;;;;;;;;;;;17.10;99.90;;;;;;5115082;28;19960;-77
2022/11/07 09:49:16;;;;;;;;;;;17.30;99.90;;;;;;5096484;28;19919;-75
2022/11/07 09:51:44;;;;;;;;;;;17.40;99.90;;;;;;5096485;28;19908;-75
2022/11/07 09:54:20;;;;;;;;;;;17.20;99.90;;;;;;5096616;28;19920;-78
2022/11/07 09:56:46;;;;;;;;;;;17.20;99.90;;;;;;5105373;28;19999;-79
2022/11/07 09:59:32;;;;;;;;;;;17.20;99.90;;;;;;5115735;28;20384;-78
2022/11/07 10:01:57;;;;;;;;;;;17.00;99.90;;;;;;5098018;28;19908;-77
2022/11/07 10:04:23;;;;;;;;;;;17.00;99.90;;;;;;5098140;28;19920;-74
2022/11/07 10:06:54;;;;;;;;;;;16.90;99.90;;;;;;5095662;28;19962;-75
2022/11/07 10:09:32;;;;;;;;;;;16.90;99.90;;;;;;5100749;28;19924;-74
2022/11/07 10:12:18;;;;;;;;;;;16.80;99.90;;;;;;5117129;28;19908;-74
2022/11/07 10:14:47;;;;;;;;;;;16.80;99.90;;;;;;5105428;28;19930;-75
2022/11/07 10:17:34;;;;;;;;;;;16.80;99.90;;;;;;5113074;28;19959;-75
2022/11/07 10:20:00;;;;;;;;;;;16.90;99.90;;;;;;5116921;28;20290;-76
2022/11/07 10:22:31;;;;;;;;;;;16.90;99.90;;;;;;5116414;28;19909;-76
2022/11/07 10:25:04;;;;;;;;;;;17.00;99.90;;;;;;5116682;28;20003;-81
2022/11/07 10:27:30;;;;;;;;;;;16.80;99.90;;;;;;5097983;28;20321;-82
2022/11/07 10:29:56;;;;;;;;;;;16.70;99.90;;;;;;5098459;28;19916;-76
2022/11/07 10:32:25;;;;;;;;;;;16.50;99.90;;;;;;5096212;28;19934;-78
2022/11/07 10:34:57;;;;;;;;;;;16.30;99.90;;;;;;5105620;27;19951;-77
2022/11/07 10:37:22;;;;;;;;;;;16.20;99.90;;;;;;5101967;28;19977;-79
2022/11/07 10:39:48;;;;;;;;;;;16.20;99.90;;;;;;5096024;28;20380;-76
2022/11/07 10:42:17;;;;;;;;;;;16.20;99.90;;;;;;5116168;28;19994;-81
2022/11/07 10:44:43;;;;;;;;;;;16.30;99.90;;;;;;5116079;28;19912;-78
2022/11/07 10:47:19;;;;;;;;;;;16.30;99.90;;;;;;5116589;28;19968;-77
2022/11/07 10:49:54;;;;;;;;;;;16.50;99.90;;;;;;5106020;28;19915;-77
2022/11/07 10:52:19;;;;;;;;;;;16.90;99.90;;;;;;5115871;28;19911;-78
2022/11/07 10:54:45;;;;;;;;;;;17.10;99.90;;;;;;5115916;28;20432;-77
2022/11/07 10:57:13;;;;;;;;;;;17.20;99.90;;;;;;5115549;28;20387;-75
2022/11/07 10:59:40;;;;;;;;;;;17.30;99.90;;;;;;5115927;28;19912;-79
2022/11/07 11:02:18;;;;;;;;;;;17.20;99.90;;;;;;5114573;28;19912;-77
2022/11/07 11:04:54;;;;;;;;;;;17.20;99.90;;;;;;5077712;28;20270;-77
2022/11/07 11:07:20;;;;;;;;;;;17.10;99.90;;;;;;5095248;28;20351;-76
2022/11/07 11:09:52;;;;;;;;;;;17.10;99.90;;;;;;5076941;28;20261;-76
2022/11/07 11:12:20;;;;;;;;;;;17.10;99.90;;;;;;5095841;28;19908;-83
2022/11/07 11:14:45;;;;;;;;;;;17.10;99.90;;;;;;5094703;28;20360;-78
2022/11/07 11:17:24;;;;;;;;;;;17.10;99.90;;;;;;5098258;28;21709;-77
2022/11/07 11:19:54;;;;;;;;;;;17.20;99.90;;;;;;5096341;28;19912;-79
2022/11/07 11:22:20;;;;;;;;;;;17.20;99.90;;;;;;5095459;28;19912;-79
2022/11/07 11:24:56;;;;;;;;;;;17.20;99.90;;;;;;5090199;28;20379;-76
2022/11/07 11:27:23;;;;;;;;;;;17.30;99.90;;;;;;5114654;28;19931;-78
2022/11/07 11:29:59;;;;;;;;;;;17.30;99.90;;;;;;5115410;28;19918;-76
2022/11/07 11:32:28;;;;;;;;;;;17.30;99.90;;;;;;5115194;28;20348;-79
2022/11/07 11:34:59;;;;;;;;;;;17.20;99.90;;;;;;5090722;28;19912;-75
2022/11/07 11:37:27;;;;;;;;;;;17.20;99.90;;;;;;5094726;28;19943;-74
2022/11/07 11:40:01;;;;;;;;;;;17.30;99.90;;;;;;5094589;28;19995;-74
2022/11/07 11:42:33;;;;;;;;;;;17.40;99.90;;;;;;5094885;28;19908;-74
2022/11/07 11:45:02;;;;;;;;;;;17.50;99.90;;;;;;5094563;28;19909;-74
2022/11/07 11:47:36;;;;;;;;;;;17.60;99.90;;;;;;5094498;28;19912;-74
2022/11/07 11:50:15;;;;;;;;;;;17.70;99.90;;;;;;5094727;28;19912;-73
2022/11/07 11:52:40;;;;;;;;;;;17.80;99.90;;;;;;5094730;28;19940;-73
2022/11/07 11:55:11;;;;;;;;;;;17.80;99.90;;;;;;5094407;28;19954;-74
2022/11/07 11:57:37;;;;;;;;;;;17.70;99.90;;;;;;5094679;28;19923;-74
2022/11/07 12:00:23;;;;;;;;;;;17.70;99.90;;;;;;5094346;28;19911;-74
2022/11/07 12:02:49;;;;;;;;;;;17.60;99.90;;;;;;5093789;28;19924;-74
2022/11/07 12:05:33;;;;;;;;;;;17.50;99.90;;;;;;5094839;28;19912;-74
2022/11/07 12:08:16;;;;;;;;;;;17.50;99.90;;;;;;5094411;28;19911;-73
2022/11/07 12:10:50;;;;;;;;;;;17.50;99.90;;;;;;5093525;28;20002;-74
2022/11/07 12:13:28;;;;;;;;;;;17.60;99.90;;;;;;5094112;28;19916;-74
2022/11/07 12:16:32;;;;;;;;;;;17.60;99.90;;;;;;5094394;28;20336;-74
2022/11/07 12:18:58;;;;;;;;;;;17.70;99.90;;;;;;5051680;28;20434;-74
2022/11/07 12:21:35;;;;;;;;;;;17.60;99.90;;;;;;5052352;28;20017;-74
2022/11/07 12:24:12;;;;;;;;;;;17.60;99.90;;;;;;5074418;28;19915;-74
2022/11/07 12:26:44;;;;;;;;;;;17.50;99.90;;;;;;5093943;28;19915;-74
2022/11/07 12:29:20;;;;;;;;;;;17.50;99.90;;;;;;5094071;28;19912;-74
2022/11/07 12:31:50;;;;;;;;;;;17.40;99.90;;;;;;5094200;28;20340;-74
2022/11/07 12:34:21;;;;;;;;;;;17.30;99.90;;;;;;5093855;28;19908;-74
2022/11/07 12:37:06;;;;;;;;;;;17.20;99.90;;;;;;5094183;28;19995;-75
2022/11/07 12:39:50;;;;;;;;;;;17.20;99.90;;;;;;5093753;28;19915;-74
2022/11/07 12:42:15;;;;;;;;;;;17.20;99.90;;;;;;5093751;28;19908;-74
2022/11/07 12:44:43;;;;;;;;;;;17.30;99.90;;;;;;5094277;28;19908;-74
2022/11/07 12:47:16;;;;;;;;;;;17.40;99.90;;;;;;5093740;28;19908;-74
2022/11/07 12:49:41;;;;;;;;;;;17.30;99.90;;;;;;5093975;28;20280;-73
2022/11/07 12:52:14;;;;;;;;;;;17.20;99.90;;;;;;5093672;28;19908;-74
2022/11/07 12:54:48;;;;;;;;;;;17.20;99.90;;;;;;5093931;28;19912;-74
2022/11/07 12:57:16;;;;;;;;;;;17.20;99.90;;;;;;5093552;28;19908;-74
2022/11/07 12:59:44;;;;;;;;;;;17.20;99.90;;;;;;5093765;28;19908;-75
2022/11/07 13:02:16;;;;;;;;;;;17.30;99.90;;;;;;5093502;28;19912;-73
2022/11/07 13:04:50;;;;;;;;;;;17.20;99.90;;;;;;5093310;28;19927;-74
2022/11/07 13:07:19;;;;;;;;;;;17.20;99.90;;;;;;5093828;28;19915;-74
2022/11/07 13:09:48;;;;;;;;;;;17.20;99.90;;;;;;5075359;28;20319;-74
2022/11/07 13:12:24;;;;;;;;;;;17.20;99.90;;;;;;5093470;28;19916;-75
2022/11/07 13:14:50;;;;;;;;;;;17.20;99.90;;;;;;5094099;28;20271;-75
2022/11/07 13:17:16;;;;;;;;;;;17.20;99.90;;;;;;5075457;28;19916;-77
2022/11/07 13:19:45;;;;;;;;;;;17.20;99.90;;;;;;5093474;28;19909;-75
2022/11/07 13:22:30;;;;;;;;;;;17.10;99.90;;;;;;5088658;28;19912;-75
2022/11/07 13:25:14;;;;;;;;;;;17.20;99.90;;;;;;5094774;28;19911;-75
2022/11/07 13:27:44;;;;;;;;;;;17.30;99.90;;;;;;5096772;28;19916;-76
2022/11/07 13:30:09;;;;;;;;;;;17.30;99.90;;;;;;5097396;28;20396;-77
2022/11/07 13:32:38;;;;;;;;;;;17.30;99.90;;;;;;5097173;28;19908;-80
2022/11/07 13:35:08;;;;;;;;;;;17.30;99.90;;;;;;5097456;28;19908;-78
2022/11/07 13:37:35;;;;;;;;;;;17.20;99.90;;;;;;5097027;28;19908;-78
2022/11/07 13:40:23;;;;;;;;;;;17.10;99.90;;;;;;5097038;28;19965;-79
2022/11/07 13:42:53;;;;;;;;;;;17.00;99.90;;;;;;5109670;28;19911;-75
2022/11/07 13:45:25;;;;;;;;;;;16.90;99.90;;;;;;5117272;28;19940;-79
2022/11/07 13:47:51;;;;;;;;;;;16.80;99.90;;;;;;5115832;28;19994;-78
2022/11/07 13:50:23;;;;;;;;;;;16.80;99.90;;;;;;5117538;28;19912;-82
2022/11/07 13:53:01;;;;;;;;;;;16.90;99.90;;;;;;5097901;28;20015;-76
2022/11/07 13:55:39;;;;;;;;;;;16.90;99.90;;;;;;5096979;28;19953;-76
2022/11/07 13:58:08;;;;;;;;;;;16.90;99.90;;;;;;5096700;28;19914;-85
2022/11/07 14:00:35;;;;;;;;;;;16.90;99.90;;;;;;5078677;28;20269;-82
2022/11/07 14:03:02;;;;;;;;;;;16.90;99.90;;;;;;5096124;28;19920;-83
2022/11/07 14:05:31;;;;;;;;;;;16.90;99.90;;;;;;5096512;28;20011;-82
2022/11/07 14:08:05;;;;;;;;;;;16.80;99.90;;;;;;5094423;28;19911;-80
2022/11/07 14:10:32;;;;;;;;;;;16.80;99.90;;;;;;5092970;28;20031;-81
2022/11/07 14:13:05;;;;;;;;;;;16.80;99.90;;;;;;5116744;28;19911;-80
2022/11/07 14:15:32;;;;;;;;;;;16.70;99.90;;;;;;5115326;28;20314;-80
2022/11/07 14:17:57;;;;;;;;;;;16.70;99.90;;;;;;5116738;28;19986;-79
2022/11/07 14:20:23;;;;;;;;;;;16.60;99.90;;;;;;5117080;28;19947;-79
2022/11/07 14:22:50;;;;;;;;;;;16.60;99.90;;;;;;5098326;28;19908;-79
2022/11/07 14:25:24;;;;;;;;;;;16.60;99.90;;;;;;5116498;28;19908;-76
2022/11/07 14:27:49;;;;;;;;;;;16.60;99.90;;;;;;5116590;28;19933;-78
2022/11/07 14:30:16;;;;;;;;;;;16.60;99.90;;;;;;5115072;28;20371;-79
2022/11/07 14:32:50;;;;;;;;;;;16.60;99.90;;;;;;5115379;28;19908;-76